sensor_id;sensor_type;location;lat;lon;timestamp;temperature;humidity
53053;DHT22;38934;52.690;6.184;2023-05-10T00:01:07;12.90;99.90
53053;DHT22;38934;52.690;6.184;2023-05-10T00:03:33;12.90;99.90
53053;DHT22;38934;52.690;6.184;2023-05-10T00:05:59;13.00;99.90
53053;DHT22;38934;52.690;6.184;2023-05-10T00:08:25;12.80;99.90
53053;DHT22;38934;52.690;6.184;2023-05-10T00:10:52;12.90;99.90
53053;DHT22;38934;52.690;6.184;2023-05-10T00:13:18;12.80;99.90
53053;DHT22;38934;52.690;6.184;2023-05-10T00:15:44;12.80;99.90
53053;DHT22;38934;52.690;6.184;2023-05-10T00:18:10;12.90;99.90
53053;DHT22;38934;52.690;6.184;2023-05-10T00:20:35;12.90;99.90
53053;DHT22;38934;52.690;6.184;2023-05-10T00:23:01;12.90;99.90
53053;DHT22;38934;52.690;6.184;2023-05-10T00:25:27;13.10;99.90
53053;DHT22;38934;52.690;6.184;2023-05-10T00:27:53;12.90;99.90
53053;DHT22;38934;52.690;6.184;2023-05-10T00:30:20;12.90;99.90
53053;DHT22;38934;52.690;6.184;2023-05-10T00:32:46;12.80;99.90
53053;DHT22;38934;52.690;6.184;2023-05-10T00:35:13;12.90;99.90
53053;DHT22;38934;52.690;6.184;2023-05-10T00:37:40;12.80;99.90
53053;DHT22;38934;52.690;6.184;2023-05-10T00:40:06;13.10;99.90
53053;DHT22;38934;52.690;6.184;2023-05-10T00:42:33;12.90;99.90
53053;DHT22;38934;52.690;6.184;2023-05-10T00:44:59;12.80;99.90
53053;DHT22;38934;52.690;6.184;2023-05-10T00:47:25;12.90;99.90
53053;DHT22;38934;52.690;6.184;2023-05-10T00:49:50;12.80;99.90
53053;DHT22;38934;52.690;6.184;2023-05-10T00:52:18;12.90;99.90
53053;DHT22;38934;52.690;6.184;2023-05-10T00:54:44;12.80;99.90
53053;DHT22;38934;52.690;6.184;2023-05-10T00:57:10;12.90;99.90
53053;DHT22;38934;52.690;6.184;2023-05-10T00:59:36;13.00;99.90
53053;DHT22;38934;52.690;6.184;2023-05-10T01:02:02;13.00;99.90
53053;DHT22;38934;52.690;6.184;2023-05-10T01:04:28;12.80;99.90
53053;DHT22;38934;52.690;6.184;2023-05-10T01:06:57;12.90;99.90
53053;DHT22;38934;52.690;6.184;2023-05-10T01:09:23;12.80;99.90
53053;DHT22;38934;52.690;6.184;2023-05-10T01:11:51;12.80;99.90
53053;DHT22;38934;52.690;6.184;2023-05-10T01:14:18;12.80;99.90
53053;DHT22;38934;52.690;6.184;2023-05-10T01:16:45;12.80;99.90
53053;DHT22;38934;52.690;6.184;2023-05-10T01:19:38;12.80;99.90
53053;DHT22;38934;52.690;6.184;2023-05-10T01:38:47;12.60;99.90
53053;DHT22;38934;52.690;6.184;2023-05-10T01:43:28;12.50;99.90
53053;DHT22;38934;52.690;6.184;2023-05-10T01:45:59;12.50;99.90
53053;DHT22;38934;52.690;6.184;2023-05-10T01:48:27;12.50;99.90
53053;DHT22;38934;52.690;6.184;2023-05-10T01:50:53;12.50;99.90
53053;DHT22;38934;52.690;6.184;2023-05-10T01:53:21;12.60;99.90
53053;DHT22;38934;52.690;6.184;2023-05-10T01:55:50;12.50;99.90
53053;DHT22;38934;52.690;6.184;2023-05-10T01:58:25;12.60;99.90
53053;DHT22;38934;52.690;6.184;2023-05-10T02:00:53;12.50;99.90
53053;DHT22;38934;52.690;6.184;2023-05-10T02:03:22;12.40;99.90
53053;DHT22;38934;52.690;6.184;2023-05-10T02:05:49;12.40;99.90
53053;DHT22;38934;52.690;6.184;2023-05-10T02:08:17;12.50;99.90
53053;DHT22;38934;52.690;6.184;2023-05-10T02:10:45;12.50;99.90
53053;DHT22;38934;52.690;6.184;2023-05-10T02:13:14;12.40;99.90
53053;DHT22;38934;52.690;6.184;2023-05-10T02:15:41;12.50;99.90
53053;DHT22;38934;52.690;6.184;2023-05-10T02:18:12;12.50;99.90
53053;DHT22;38934;52.690;6.184;2023-05-10T02:20:39;12.40;99.90
53053;DHT22;38934;52.690;6.184;2023-05-10T02:23:07;12.50;99.90
53053;DHT22;38934;52.690;6.184;2023-05-10T02:25:34;12.40;99.90
53053;DHT22;38934;52.690;6.184;2023-05-10T02:28:03;12.50;99.90
53053;DHT22;38934;52.690;6.184;2023-05-10T02:30:31;12.40;99.90
53053;DHT22;38934;52.690;6.184;2023-05-10T02:32:57;12.40;99.90
53053;DHT22;38934;52.690;6.184;2023-05-10T02:35:26;12.40;99.90
53053;DHT22;38934;52.690;6.184;2023-05-10T02:37:53;12.40;99.90
53053;DHT22;38934;52.690;6.184;2023-05-10T02:40:20;12.40;99.90
53053;DHT22;38934;52.690;6.184;2023-05-10T02:42:48;12.40;99.90
53053;DHT22;38934;52.690;6.184;2023-05-10T02:45:20;12.40;99.90
53053;DHT22;38934;52.690;6.184;2023-05-10T02:47:47;12.40;99.90
53053;DHT22;38934;52.690;6.184;2023-05-10T02:50:16;12.30;99.90
53053;DHT22;38934;52.690;6.184;2023-05-10T02:52:56;12.40;99.90
53053;DHT22;38934;52.690;6.184;2023-05-10T02:55:26;12.40;99.90
53053;DHT22;38934;52.690;6.184;2023-05-10T02:58:01;12.40;99.90
53053;DHT22;38934;52.690;6.184;2023-05-10T03:00:28;12.40;99.90
53053;DHT22;38934;52.690;6.184;2023-05-10T03:02:54;12.30;99.90
53053;DHT22;38934;52.690;6.184;2023-05-10T03:05:20;12.40;99.90
53053;DHT22;38934;52.690;6.184;2023-05-10T03:07:48;12.40;99.90
53053;DHT22;38934;52.690;6.184;2023-05-10T03:10:14;12.30;99.90
53053;DHT22;38934;52.690;6.184;2023-05-10T03:18:09;12.40;99.90
53053;DHT22;38934;52.690;6.184;2023-05-10T03:21:24;12.40;99.90
53053;DHT22;38934;52.690;6.184;2023-05-10T03:26:25;12.30;99.90
53053;DHT22;38934;52.690;6.184;2023-05-10T03:28:52;12.30;99.90
53053;DHT22;38934;52.690;6.184;2023-05-10T03:31:19;12.30;99.90
53053;DHT22;38934;52.690;6.184;2023-05-10T03:33:48;12.40;99.90
53053;DHT22;38934;52.690;6.184;2023-05-10T03:36:17;12.30;99.90
53053;DHT22;38934;52.690;6.184;2023-05-10T03:38:42;12.30;99.90
53053;DHT22;38934;52.690;6.184;2023-05-10T03:41:08;12.30;99.90
53053;DHT22;38934;52.690;6.184;2023-05-10T03:43:35;12.40;99.90
53053;DHT22;38934;52.690;6.184;2023-05-10T03:46:03;12.30;99.90
53053;DHT22;38934;52.690;6.184;2023-05-10T03:48:29;12.20;99.90
53053;DHT22;38934;52.690;6.184;2023-05-10T03:50:56;12.30;99.90
53053;DHT22;38934;52.690;6.184;2023-05-10T03:53:22;12.30;99.90
53053;DHT22;38934;52.690;6.184;2023-05-10T03:55:48;12.30;99.90
53053;DHT22;38934;52.690;6.184;2023-05-10T03:58:15;12.20;99.90
53053;DHT22;38934;52.690;6.184;2023-05-10T04:00:42;12.20;99.90
53053;DHT22;38934;52.690;6.184;2023-05-10T04:03:11;12.30;99.90
53053;DHT22;38934;52.690;6.184;2023-05-10T04:05:38;12.30;99.90
53053;DHT22;38934;52.690;6.184;2023-05-10T04:08:04;12.30;99.90
53053;DHT22;38934;52.690;6.184;2023-05-10T04:10:30;12.20;99.90
53053;DHT22;38934;52.690;6.184;2023-05-10T04:12:57;12.20;99.90
53053;DHT22;38934;52.690;6.184;2023-05-10T04:15:23;12.30;99.90
53053;DHT22;38934;52.690;6.184;2023-05-10T04:17:51;12.20;99.90
53053;DHT22;38934;52.690;6.184;2023-05-10T04:20:17;12.20;99.90
53053;DHT22;38934;52.690;6.184;2023-05-10T04:22:42;12.20;99.90
53053;DHT22;38934;52.690;6.184;2023-05-10T04:25:08;12.20;99.90
53053;DHT22;38934;52.690;6.184;2023-05-10T04:27:34;12.20;99.90
53053;DHT22;38934;52.690;6.184;2023-05-10T04:30:01;12.20;99.90
53053;DHT22;38934;52.690;6.184;2023-05-10T04:32:27;12.30;99.90
53053;DHT22;38934;52.690;6.184;2023-05-10T04:34:56;12.20;99.90
53053;DHT22;38934;52.690;6.184;2023-05-10T04:37:22;12.20;99.90
53053;DHT22;38934;52.690;6.184;2023-05-10T04:39:48;12.20;99.90
53053;DHT22;38934;52.690;6.184;2023-05-10T04:42:14;12.50;99.90
53053;DHT22;38934;52.690;6.184;2023-05-10T04:44:40;12.20;99.90
53053;DHT22;38934;52.690;6.184;2023-05-10T04:47:06;12.30;99.90
53053;DHT22;38934;52.690;6.184;2023-05-10T04:49:32;12.30;99.90
53053;DHT22;38934;52.690;6.184;2023-05-10T04:51:58;12.30;99.90
53053;DHT22;38934;52.690;6.184;2023-05-10T04:54:24;12.40;99.90
53053;DHT22;38934;52.690;6.184;2023-05-10T04:56:49;12.40;99.90
53053;DHT22;38934;52.690;6.184;2023-05-10T04:59:15;12.40;99.90
53053;DHT22;38934;52.690;6.184;2023-05-10T05:01:41;12.60;99.90
53053;DHT22;38934;52.690;6.184;2023-05-10T05:04:07;12.40;99.90
53053;DHT22;38934;52.690;6.184;2023-05-10T05:06:32;12.40;99.90
53053;DHT22;38934;52.690;6.184;2023-05-10T05:08:58;12.40;99.90
53053;DHT22;38934;52.690;6.184;2023-05-10T05:11:24;12.40;99.90
53053;DHT22;38934;52.690;6.184;2023-05-10T05:13:50;12.40;99.90
53053;DHT22;38934;52.690;6.184;2023-05-10T05:16:17;12.50;99.90
53053;DHT22;38934;52.690;6.184;2023-05-10T05:18:43;12.40;99.90
53053;DHT22;38934;52.690;6.184;2023-05-10T05:21:18;12.50;99.90
53053;DHT22;38934;52.690;6.184;2023-05-10T05:23:44;12.40;99.90
53053;DHT22;38934;52.690;6.184;2023-05-10T05:26:11;12.50;99.90
53053;DHT22;38934;52.690;6.184;2023-05-10T05:28:37;12.40;99.90
53053;DHT22;38934;52.690;6.184;2023-05-10T05:31:05;12.40;99.90
53053;DHT22;38934;52.690;6.184;2023-05-10T05:33:34;12.50;99.90
53053;DHT22;38934;52.690;6.184;2023-05-10T05:36:03;12.80;99.90
53053;DHT22;38934;52.690;6.184;2023-05-10T05:38:30;12.50;99.90
53053;DHT22;38934;52.690;6.184;2023-05-10T05:40:58;13.10;99.90
53053;DHT22;38934;52.690;6.184;2023-05-10T05:43:23;12.60;99.90
53053;DHT22;38934;52.690;6.184;2023-05-10T05:45:51;12.70;99.90
53053;DHT22;38934;52.690;6.184;2023-05-10T05:48:17;12.60;99.90
53053;DHT22;38934;52.690;6.184;2023-05-10T05:50:43;12.70;99.90
53053;DHT22;38934;52.690;6.184;2023-05-10T05:53:09;12.70;99.90
53053;DHT22;38934;52.690;6.184;2023-05-10T05:55:40;12.80;99.90
53053;DHT22;38934;52.690;6.184;2023-05-10T05:58:15;12.80;99.90
53053;DHT22;38934;52.690;6.184;2023-05-10T06:00:43;12.80;99.90
53053;DHT22;38934;52.690;6.184;2023-05-10T06:03:11;12.80;99.90
53053;DHT22;38934;52.690;6.184;2023-05-10T06:05:37;12.80;99.90
53053;DHT22;38934;52.690;6.184;2023-05-10T06:08:03;12.80;99.90
53053;DHT22;38934;52.690;6.184;2023-05-10T06:10:30;12.80;99.90
53053;DHT22;38934;52.690;6.184;2023-05-10T06:12:59;13.30;99.90
53053;DHT22;38934;52.690;6.184;2023-05-10T06:15:27;13.20;99.90
53053;DHT22;38934;52.690;6.184;2023-05-10T06:17:52;12.70;99.90
53053;DHT22;38934;52.690;6.184;2023-05-10T06:20:18;12.80;99.90
53053;DHT22;38934;52.690;6.184;2023-05-10T06:22:45;12.70;99.90
53053;DHT22;38934;52.690;6.184;2023-05-10T06:25:13;12.70;99.90
53053;DHT22;38934;52.690;6.184;2023-05-10T06:27:40;12.80;99.90
53053;DHT22;38934;52.690;6.184;2023-05-10T06:30:06;13.40;99.90
53053;DHT22;38934;52.690;6.184;2023-05-10T06:32:32;13.00;99.90
53053;DHT22;38934;52.690;6.184;2023-05-10T06:34:57;13.00;99.90
53053;DHT22;38934;52.690;6.184;2023-05-10T06:37:23;13.00;99.90
53053;DHT22;38934;52.690;6.184;2023-05-10T06:39:56;13.10;99.90
53053;DHT22;38934;52.690;6.184;2023-05-10T06:42:26;13.10;99.90
53053;DHT22;38934;52.690;6.184;2023-05-10T06:45:03;13.20;99.90
53053;DHT22;38934;52.690;6.184;2023-05-10T06:47:45;13.30;99.90
53053;DHT22;38934;52.690;6.184;2023-05-10T06:50:15;13.40;99.90
53053;DHT22;38934;52.690;6.184;2023-05-10T06:52:42;13.30;99.90
53053;DHT22;38934;52.690;6.184;2023-05-10T06:55:10;13.30;99.90
53053;DHT22;38934;52.690;6.184;2023-05-10T06:57:36;13.90;99.90
53053;DHT22;38934;52.690;6.184;2023-05-10T07:00:06;13.40;99.90
53053;DHT22;38934;52.690;6.184;2023-05-10T07:02:32;13.40;99.90
53053;DHT22;38934;52.690;6.184;2023-05-10T07:05:07;13.50;99.90
53053;DHT22;38934;52.690;6.184;2023-05-10T07:07:33;13.40;99.90
53053;DHT22;38934;52.690;6.184;2023-05-10T07:10:01;13.40;99.90
53053;DHT22;38934;52.690;6.184;2023-05-10T07:12:28;13.40;99.90
53053;DHT22;38934;52.690;6.184;2023-05-10T07:14:55;13.50;99.90
53053;DHT22;38934;52.690;6.184;2023-05-10T07:17:23;13.40;99.90
53053;DHT22;38934;52.690;6.184;2023-05-10T07:19:51;13.80;99.90
53053;DHT22;38934;52.690;6.184;2023-05-10T07:22:27;13.40;99.90
53053;DHT22;38934;52.690;6.184;2023-05-10T07:24:55;13.50;99.90
53053;DHT22;38934;52.690;6.184;2023-05-10T07:27:21;13.60;99.90
53053;DHT22;38934;52.690;6.184;2023-05-10T07:29:47;13.70;99.90
53053;DHT22;38934;52.690;6.184;2023-05-10T07:32:12;13.80;99.90
53053;DHT22;38934;52.690;6.184;2023-05-10T07:35:07;14.00;99.90
53053;DHT22;38934;52.690;6.184;2023-05-10T07:37:34;14.00;99.90
53053;DHT22;38934;52.690;6.184;2023-05-10T07:40:32;14.10;99.90
53053;DHT22;38934;52.690;6.184;2023-05-10T07:43:00;14.20;99.90
53053;DHT22;38934;52.690;6.184;2023-05-10T07:45:27;14.20;99.90
53053;DHT22;38934;52.690;6.184;2023-05-10T07:48:00;14.20;99.90
53053;DHT22;38934;52.690;6.184;2023-05-10T07:50:42;14.20;99.90
53053;DHT22;38934;52.690;6.184;2023-05-10T07:53:10;14.20;99.90
53053;DHT22;38934;52.690;6.184;2023-05-10T07:55:36;14.30;99.90
53053;DHT22;38934;52.690;6.184;2023-05-10T07:58:07;14.30;99.90
53053;DHT22;38934;52.690;6.184;2023-05-10T08:00:48;14.70;99.90
53053;DHT22;38934;52.690;6.184;2023-05-10T08:03:28;14.70;99.90
53053;DHT22;38934;52.690;6.184;2023-05-10T08:05:56;14.30;99.90
53053;DHT22;38934;52.690;6.184;2023-05-10T08:08:23;14.30;99.90
53053;DHT22;38934;52.690;6.184;2023-05-10T08:10:56;14.40;99.90
53053;DHT22;38934;52.690;6.184;2023-05-10T08:13:24;14.50;99.90
53053;DHT22;38934;52.690;6.184;2023-05-10T08:15:51;14.50;99.90
53053;DHT22;38934;52.690;6.184;2023-05-10T08:18:18;14.60;99.90
53053;DHT22;38934;52.690;6.184;2023-05-10T08:20:44;14.60;99.90
53053;DHT22;38934;52.690;6.184;2023-05-10T08:23:12;14.70;99.90
53053;DHT22;38934;52.690;6.184;2023-05-10T08:25:40;14.80;99.90
53053;DHT22;38934;52.690;6.184;2023-05-10T08:28:06;15.00;99.90
53053;DHT22;38934;52.690;6.184;2023-05-10T08:30:31;15.10;99.90
53053;DHT22;38934;52.690;6.184;2023-05-10T08:32:57;15.10;99.90
53053;DHT22;38934;52.690;6.184;2023-05-10T08:35:24;15.10;99.90
53053;DHT22;38934;52.690;6.184;2023-05-10T08:37:50;15.50;99.90
53053;DHT22;38934;52.690;6.184;2023-05-10T08:40:19;15.50;99.90
53053;DHT22;38934;52.690;6.184;2023-05-10T08:43:06;15.30;99.90
53053;DHT22;38934;52.690;6.184;2023-05-10T08:45:39;15.50;99.90
53053;DHT22;38934;52.690;6.184;2023-05-10T08:48:06;15.60;99.90
53053;DHT22;38934;52.690;6.184;2023-05-10T08:50:40;15.70;99.90
53053;DHT22;38934;52.690;6.184;2023-05-10T08:53:12;15.90;99.90
53053;DHT22;38934;52.690;6.184;2023-05-10T08:55:39;15.70;99.90
53053;DHT22;38934;52.690;6.184;2023-05-10T08:58:06;15.80;99.90
53053;DHT22;38934;52.690;6.184;2023-05-10T09:00:33;15.90;99.90
53053;DHT22;38934;52.690;6.184;2023-05-10T09:02:59;16.20;99.90
53053;DHT22;38934;52.690;6.184;2023-05-10T09:05:26;16.70;99.90
53053;DHT22;38934;52.690;6.184;2023-05-10T09:07:53;16.60;99.90
53053;DHT22;38934;52.690;6.184;2023-05-10T09:10:19;16.20;99.90
53053;DHT22;38934;52.690;6.184;2023-05-10T09:12:45;16.10;99.90
53053;DHT22;38934;52.690;6.184;2023-05-10T09:15:15;16.10;99.90
53053;DHT22;38934;52.690;6.184;2023-05-10T09:17:42;16.20;99.90
53053;DHT22;38934;52.690;6.184;2023-05-10T09:20:10;16.20;99.90
53053;DHT22;38934;52.690;6.184;2023-05-10T09:22:36;16.20;99.90
53053;DHT22;38934;52.690;6.184;2023-05-10T09:25:11;16.10;99.90
53053;DHT22;38934;52.690;6.184;2023-05-10T09:27:38;16.00;99.90
53053;DHT22;38934;52.690;6.184;2023-05-10T09:30:05;16.00;99.90
53053;DHT22;38934;52.690;6.184;2023-05-10T09:32:44;15.90;99.90
53053;DHT22;38934;52.690;6.184;2023-05-10T09:35:15;15.80;99.90
53053;DHT22;38934;52.690;6.184;2023-05-10T09:37:43;15.70;99.90
53053;DHT22;38934;52.690;6.184;2023-05-10T09:40:19;15.70;99.90
53053;DHT22;38934;52.690;6.184;2023-05-10T09:43:00;15.70;99.90
53053;DHT22;38934;52.690;6.184;2023-05-10T09:45:28;15.70;99.90
53053;DHT22;38934;52.690;6.184;2023-05-10T09:47:55;15.70;99.90
53053;DHT22;38934;52.690;6.184;2023-05-10T09:50:22;15.80;99.90
53053;DHT22;38934;52.690;6.184;2023-05-10T09:52:51;15.80;99.90
53053;DHT22;38934;52.690;6.184;2023-05-10T09:55:19;15.80;99.90
53053;DHT22;38934;52.690;6.184;2023-05-10T09:57:47;16.20;99.90
53053;DHT22;38934;52.690;6.184;2023-05-10T10:00:20;16.10;99.90
53053;DHT22;38934;52.690;6.184;2023-05-10T10:02:48;16.10;99.90
53053;DHT22;38934;52.690;6.184;2023-05-10T10:05:14;16.60;99.90
53053;DHT22;38934;52.690;6.184;2023-05-10T10:07:41;16.20;99.90
53053;DHT22;38934;52.690;6.184;2023-05-10T10:10:08;16.20;99.90
53053;DHT22;38934;52.690;6.184;2023-05-10T10:12:39;16.20;99.90
53053;DHT22;38934;52.690;6.184;2023-05-10T10:15:05;16.20;99.90
53053;DHT22;38934;52.690;6.184;2023-05-10T10:17:33;16.20;99.90
53053;DHT22;38934;52.690;6.184;2023-05-10T10:20:02;16.10;99.90
53053;DHT22;38934;52.690;6.184;2023-05-10T10:22:28;16.00;99.90
53053;DHT22;38934;52.690;6.184;2023-05-10T10:24:55;15.90;99.90
53053;DHT22;38934;52.690;6.184;2023-05-10T10:30:41;15.90;99.90
53053;DHT22;38934;52.690;6.184;2023-05-10T10:33:36;16.00;99.90
53053;DHT22;38934;52.690;6.184;2023-05-10T10:36:04;16.10;99.90
53053;DHT22;38934;52.690;6.184;2023-05-10T10:41:39;16.10;99.90
53053;DHT22;38934;52.690;6.184;2023-05-10T10:52:17;15.90;99.90
53053;DHT22;38934;52.690;6.184;2023-05-10T10:57:32;15.80;99.90
53053;DHT22;38934;52.690;6.184;2023-05-10T11:00:21;15.70;99.90
53053;DHT22;38934;52.690;6.184;2023-05-10T11:02:51;15.60;99.90
53053;DHT22;38934;52.690;6.184;2023-05-10T11:07:59;15.40;99.90
53053;DHT22;38934;52.690;6.184;2023-05-10T11:10:27;15.30;99.90
53053;DHT22;38934;52.690;6.184;2023-05-10T11:12:59;15.40;99.90
53053;DHT22;38934;52.690;6.184;2023-05-10T11:15:37;15.10;99.90
53053;DHT22;38934;52.690;6.184;2023-05-10T11:18:27;15.20;99.90
53053;DHT22;38934;52.690;6.184;2023-05-10T11:21:01;15.00;99.90
53053;DHT22;38934;52.690;6.184;2023-05-10T11:26:07;15.00;99.90
53053;DHT22;38934;52.690;6.184;2023-05-10T11:28:44;15.00;99.90
53053;DHT22;38934;52.690;6.184;2023-05-10T11:31:10;15.00;99.90
53053;DHT22;38934;52.690;6.184;2023-05-10T11:33:45;15.00;99.90
53053;DHT22;38934;52.690;6.184;2023-05-10T11:36:16;15.00;99.90
53053;DHT22;38934;52.690;6.184;2023-05-10T11:38:43;15.20;99.90
53053;DHT22;38934;52.690;6.184;2023-05-10T11:41:12;15.20;99.90
53053;DHT22;38934;52.690;6.184;2023-05-10T11:43:41;15.20;99.90
53053;DHT22;38934;52.690;6.184;2023-05-10T11:46:11;15.40;99.90
53053;DHT22;38934;52.690;6.184;2023-05-10T11:48:41;15.50;99.90
53053;DHT22;38934;52.690;6.184;2023-05-10T11:51:08;15.70;99.90
53053;DHT22;38934;52.690;6.184;2023-05-10T11:53:34;15.80;99.90
53053;DHT22;38934;52.690;6.184;2023-05-10T11:56:10;15.90;99.90
53053;DHT22;38934;52.690;6.184;2023-05-10T11:58:37;16.00;99.90
53053;DHT22;38934;52.690;6.184;2023-05-10T12:01:06;16.10;99.90
53053;DHT22;38934;52.690;6.184;2023-05-10T12:03:33;16.10;99.90
53053;DHT22;38934;52.690;6.184;2023-05-10T12:06:00;16.20;99.90
53053;DHT22;38934;52.690;6.184;2023-05-10T12:08:27;16.20;99.90
53053;DHT22;38934;52.690;6.184;2023-05-10T12:11:05;16.20;99.90
53053;DHT22;38934;52.690;6.184;2023-05-10T12:13:31;16.20;99.90
53053;DHT22;38934;52.690;6.184;2023-05-10T12:16:15;16.30;99.90
53053;DHT22;38934;52.690;6.184;2023-05-10T12:18:42;16.40;99.90
53053;DHT22;38934;52.690;6.184;2023-05-10T12:21:11;16.40;99.90
53053;DHT22;38934;52.690;6.184;2023-05-10T12:23:38;16.50;99.90
53053;DHT22;38934;52.690;6.184;2023-05-10T12:26:05;16.50;99.90
53053;DHT22;38934;52.690;6.184;2023-05-10T12:28:32;16.50;99.90
53053;DHT22;38934;52.690;6.184;2023-05-10T12:30:59;16.40;99.90
53053;DHT22;38934;52.690;6.184;2023-05-10T12:33:25;16.40;99.90
53053;DHT22;38934;52.690;6.184;2023-05-10T12:35:52;16.50;99.90
53053;DHT22;38934;52.690;6.184;2023-05-10T12:41:05;16.20;99.90
53053;DHT22;38934;52.690;6.184;2023-05-10T12:43:32;16.10;99.90
53053;DHT22;38934;52.690;6.184;2023-05-10T12:45:58;16.50;99.90
53053;DHT22;38934;52.690;6.184;2023-05-10T12:48:24;16.10;99.90
53053;DHT22;38934;52.690;6.184;2023-05-10T12:50:50;16.20;99.90
53053;DHT22;38934;52.690;6.184;2023-05-10T12:53:16;16.20;99.90
53053;DHT22;38934;52.690;6.184;2023-05-10T12:55:43;16.20;99.90
53053;DHT22;38934;52.690;6.184;2023-05-10T12:58:09;16.20;99.90
53053;DHT22;38934;52.690;6.184;2023-05-10T13:00:34;16.20;99.90
53053;DHT22;38934;52.690;6.184;2023-05-10T13:03:00;16.10;99.90
53053;DHT22;38934;52.690;6.184;2023-05-10T13:05:26;15.90;99.90
53053;DHT22;38934;52.690;6.184;2023-05-10T13:07:52;15.80;99.90
53053;DHT22;38934;52.690;6.184;2023-05-10T13:10:24;15.60;99.90
53053;DHT22;38934;52.690;6.184;2023-05-10T13:12:50;15.50;99.90
53053;DHT22;38934;52.690;6.184;2023-05-10T13:15:18;15.30;99.90
53053;DHT22;38934;52.690;6.184;2023-05-10T13:17:44;15.20;99.90
53053;DHT22;38934;52.690;6.184;2023-05-10T13:20:11;15.20;99.90
53053;DHT22;38934;52.690;6.184;2023-05-10T13:22:43;15.10;99.90
53053;DHT22;38934;52.690;6.184;2023-05-10T13:25:09;15.10;99.90
53053;DHT22;38934;52.690;6.184;2023-05-10T13:27:34;15.00;99.90
53053;DHT22;38934;52.690;6.184;2023-05-10T13:30:03;15.40;99.90
53053;DHT22;38934;52.690;6.184;2023-05-10T13:32:30;15.00;99.90
53053;DHT22;38934;52.690;6.184;2023-05-10T13:34:56;15.00;99.90
53053;DHT22;38934;52.690;6.184;2023-05-10T13:37:22;15.30;99.90
53053;DHT22;38934;52.690;6.184;2023-05-10T13:39:48;15.00;99.90
53053;DHT22;38934;52.690;6.184;2023-05-10T13:42:14;15.00;99.90
53053;DHT22;38934;52.690;6.184;2023-05-10T13:44:41;15.00;99.90
53053;DHT22;38934;52.690;6.184;2023-05-10T13:47:07;15.00;99.90
53053;DHT22;38934;52.690;6.184;2023-05-10T13:49:32;15.10;99.90
53053;DHT22;38934;52.690;6.184;2023-05-10T13:52:00;15.10;99.90
53053;DHT22;38934;52.690;6.184;2023-05-10T13:54:33;15.20;99.90
53053;DHT22;38934;52.690;6.184;2023-05-10T13:57:00;15.30;99.90
53053;DHT22;38934;52.690;6.184;2023-05-10T13:59:26;15.30;99.90
53053;DHT22;38934;52.690;6.184;2023-05-10T14:01:51;15.40;99.90
53053;DHT22;38934;52.690;6.184;2023-05-10T14:04:17;15.60;99.90
53053;DHT22;38934;52.690;6.184;2023-05-10T14:06:43;15.70;99.90
53053;DHT22;38934;52.690;6.184;2023-05-10T14:09:10;15.90;99.90
53053;DHT22;38934;52.690;6.184;2023-05-10T14:11:36;16.00;99.90
53053;DHT22;38934;52.690;6.184;2023-05-10T14:14:01;16.10;99.90
53053;DHT22;38934;52.690;6.184;2023-05-10T14:16:27;16.30;99.90
53053;DHT22;38934;52.690;6.184;2023-05-10T14:18:55;16.40;99.90
53053;DHT22;38934;52.690;6.184;2023-05-10T14:21:20;16.50;99.90
53053;DHT22;38934;52.690;6.184;2023-05-10T14:23:46;16.60;99.90
53053;DHT22;38934;52.690;6.184;2023-05-10T14:26:12;16.60;99.90
53053;DHT22;38934;52.690;6.184;2023-05-10T14:28:39;16.70;99.90
53053;DHT22;38934;52.690;6.184;2023-05-10T14:31:04;16.80;99.90
53053;DHT22;38934;52.690;6.184;2023-05-10T14:33:32;16.80;99.90
53053;DHT22;38934;52.690;6.184;2023-05-10T14:35:58;16.80;99.90
53053;DHT22;38934;52.690;6.184;2023-05-10T14:38:24;16.80;99.90
53053;DHT22;38934;52.690;6.184;2023-05-10T14:40:50;17.00;99.90
53053;DHT22;38934;52.690;6.184;2023-05-10T14:43:16;17.00;99.90
53053;DHT22;38934;52.690;6.184;2023-05-10T14:45:43;16.90;99.90
53053;DHT22;38934;52.690;6.184;2023-05-10T14:48:10;16.90;99.90
53053;DHT22;38934;52.690;6.184;2023-05-10T14:50:40;16.90;99.90
53053;DHT22;38934;52.690;6.184;2023-05-10T14:53:06;16.90;99.90
53053;DHT22;38934;52.690;6.184;2023-05-10T14:55:32;16.90;99.90
53053;DHT22;38934;52.690;6.184;2023-05-10T14:57:59;17.00;99.90
53053;DHT22;38934;52.690;6.184;2023-05-10T15:00:25;17.00;99.90
53053;DHT22;38934;52.690;6.184;2023-05-10T15:02:50;17.00;99.90
53053;DHT22;38934;52.690;6.184;2023-05-10T15:05:16;17.10;99.90
53053;DHT22;38934;52.690;6.184;2023-05-10T15:07:42;17.10;99.90
53053;DHT22;38934;52.690;6.184;2023-05-10T15:10:09;17.10;99.90
53053;DHT22;38934;52.690;6.184;2023-05-10T15:12:36;17.20;99.90
53053;DHT22;38934;52.690;6.184;2023-05-10T15:15:01;17.10;99.90
53053;DHT22;38934;52.690;6.184;2023-05-10T15:17:27;17.10;99.90
53053;DHT22;38934;52.690;6.184;2023-05-10T15:19:53;17.20;99.90
53053;DHT22;38934;52.690;6.184;2023-05-10T15:22:19;17.10;99.90
53053;DHT22;38934;52.690;6.184;2023-05-10T15:24:44;17.00;99.90
53053;DHT22;38934;52.690;6.184;2023-05-10T15:27:10;17.00;99.90
53053;DHT22;38934;52.690;6.184;2023-05-10T15:29:36;16.90;99.90
53053;DHT22;38934;52.690;6.184;2023-05-10T15:32:02;16.90;99.90
53053;DHT22;38934;52.690;6.184;2023-05-10T15:34:28;16.80;99.90
53053;DHT22;38934;52.690;6.184;2023-05-10T15:36:55;16.70;99.90
53053;DHT22;38934;52.690;6.184;2023-05-10T15:39:20;16.60;99.90
53053;DHT22;38934;52.690;6.184;2023-05-10T15:41:46;16.50;99.90
53053;DHT22;38934;52.690;6.184;2023-05-10T15:44:12;16.50;99.90
53053;DHT22;38934;52.690;6.184;2023-05-10T15:46:38;16.50;99.90
53053;DHT22;38934;52.690;6.184;2023-05-10T15:49:05;16.40;99.90
53053;DHT22;38934;52.690;6.184;2023-05-10T15:51:32;16.30;99.90
53053;DHT22;38934;52.690;6.184;2023-05-10T15:54:01;16.40;99.90
53053;DHT22;38934;52.690;6.184;2023-05-10T15:56:32;16.30;99.90
53053;DHT22;38934;52.690;6.184;2023-05-10T15:58:58;16.40;99.90
53053;DHT22;38934;52.690;6.184;2023-05-10T16:01:24;16.20;99.90
53053;DHT22;38934;52.690;6.184;2023-05-10T16:03:50;16.30;99.90
53053;DHT22;38934;52.690;6.184;2023-05-10T16:06:16;16.10;99.90
53053;DHT22;38934;52.690;6.184;2023-05-10T16:08:42;16.00;99.90
53053;DHT22;38934;52.690;6.184;2023-05-10T16:11:10;16.00;99.90
53053;DHT22;38934;52.690;6.184;2023-05-10T16:13:36;16.00;99.90
53053;DHT22;38934;52.690;6.184;2023-05-10T16:16:01;15.90;99.90
53053;DHT22;38934;52.690;6.184;2023-05-10T16:18:27;15.90;99.90
53053;DHT22;38934;52.690;6.184;2023-05-10T16:20:53;16.20;99.90
53053;DHT22;38934;52.690;6.184;2023-05-10T16:23:19;15.90;99.90
53053;DHT22;38934;52.690;6.184;2023-05-10T16:25:45;15.70;99.90
53053;DHT22;38934;52.690;6.184;2023-05-10T16:28:10;15.70;99.90